SBOSBO HER / LGIR
Speedbird OnlineSpeedbird Online HER / LGIR

Heraklion International Nikos Kazantzakis Airport
07:02 18.7°C

Location Heraklion, Greece
Latitude: 35.3396987915
Longitude: 25.180299758900002
Local Time 07:02 on 24 Apr 2024
UTC +3 hours (Europe/Athens)
Currency £1 equals EUR 1.16
METAR LGIR 240350Z 09006KT 6000 FEW020 BKN080 19/17 Q1006 NOSIG
TAF TAF LGIR 232300Z 2400/2424 17025G40KT 8000 SCT020 BKN080 PROB40 TEMPO 2400/2404 4000 DU BECMG 2400/2402 28010KT
Weather As Of 24 Apr 2024 07:02
Description Overcast clouds
Wind 6 km/h from East (90°)
Cloud Cover 100%
Precipitation Rain: none, Snow: none
Sunrise 06:35
Sunset 19:59
NOTAM 2 active NOTAM
Rotations During the last 90 days there were
2 flights from LHR
2 flights to LHR
Lounges Filoxenia Lounge , Main Terminal
Web Wikipedia
Codes IATA: HER
ICAO: LGIR
Altitude 35 Meter / 115 Feet
Distance 2,683 KM / 1,667 Miles
from London.
Runways
RunwayLength (m)Surface
092682Asphalt
121566Asphalt
18780Asphalt
272682Asphalt
301566Asphalt
36780Asphalt
Radio
TypeDescriptionFrequency
A/GKAZANTZAKIS RDO563.7
APPIRAKLION APP123.975
ATISATIS127.55
DIRIRAKLION DIRECTOR118.025
GNDKAZANTZAKIS GND121.7
TRSAIRAKLION RADAR123.975
TWRKAZANTZAKIS TWR120.85
Live ATC



Support Speedbird Online

© 2017-2024 Speedbird Online